sensor_id;sensor_type;location;lat;lon;timestamp;P1;durP1;ratioP1;P2;durP2;ratioP2
12768;SDS011;6448;48.916;8.990;2023-12-04T00:00:41;9.60;;;8.80;;
12768;SDS011;6448;48.916;8.990;2023-12-04T00:01:43;9.93;;;9.13;;
12768;SDS011;6448;48.916;8.990;2023-12-04T00:02:45;9.43;;;8.68;;
12768;SDS011;6448;48.916;8.990;2023-12-04T00:03:47;9.05;;;8.35;;
12768;SDS011;6448;48.916;8.990;2023-12-04T00:04:47;10.00;;;9.13;;
12768;SDS011;6448;48.916;8.990;2023-12-04T00:05:48;9.85;;;8.95;;
12768;SDS011;6448;48.916;8.990;2023-12-04T00:06:50;9.88;;;9.07;;
12768;SDS011;6448;48.916;8.990;2023-12-04T00:07:51;9.68;;;8.85;;
12768;SDS011;6448;48.916;8.990;2023-12-04T00:08:52;9.73;;;8.93;;
12768;SDS011;6448;48.916;8.990;2023-12-04T00:09:53;9.93;;;9.13;;
12768;SDS011;6448;48.916;8.990;2023-12-04T00:10:55;9.80;;;9.00;;
12768;SDS011;6448;48.916;8.990;2023-12-04T00:11:56;9.68;;;8.88;;
12768;SDS011;6448;48.916;8.990;2023-12-04T00:12:58;9.57;;;8.77;;
12768;SDS011;6448;48.916;8.990;2023-12-04T00:13:58;10.00;;;9.20;;
12768;SDS011;6448;48.916;8.990;2023-12-04T00:15:00;9.97;;;9.07;;
12768;SDS011;6448;48.916;8.990;2023-12-04T00:16:03;10.23;;;9.40;;
12768;SDS011;6448;48.916;8.990;2023-12-04T00:17:04;9.85;;;9.05;;
12768;SDS011;6448;48.916;8.990;2023-12-04T00:18:06;10.13;;;9.32;;
12768;SDS011;6448;48.916;8.990;2023-12-04T00:19:06;10.20;;;9.32;;
12768;SDS011;6448;48.916;8.990;2023-12-04T00:20:08;10.00;;;9.20;;
12768;SDS011;6448;48.916;8.990;2023-12-04T00:21:10;9.77;;;8.98;;
12768;SDS011;6448;48.916;8.990;2023-12-04T00:22:11;9.68;;;8.88;;
12768;SDS011;6448;48.916;8.990;2023-12-04T00:23:12;10.05;;;9.23;;
12768;SDS011;6448;48.916;8.990;2023-12-04T00:24:14;10.07;;;9.25;;
12768;SDS011;6448;48.916;8.990;2023-12-04T00:25:15;9.88;;;9.07;;
12768;SDS011;6448;48.916;8.990;2023-12-04T00:26:16;9.80;;;9.00;;
12768;SDS011;6448;48.916;8.990;2023-12-04T00:27:17;10.18;;;9.27;;
12768;SDS011;6448;48.916;8.990;2023-12-04T00:28:21;9.88;;;9.07;;
12768;SDS011;6448;48.916;8.990;2023-12-04T00:29:21;10.20;;;9.40;;
12768;SDS011;6448;48.916;8.990;2023-12-04T00:30:24;9.82;;;9.02;;
12768;SDS011;6448;48.916;8.990;2023-12-04T00:31:25;10.05;;;9.23;;
12768;SDS011;6448;48.916;8.990;2023-12-04T00:32:27;10.23;;;9.33;;
12768;SDS011;6448;48.916;8.990;2023-12-04T00:33:28;9.90;;;9.10;;
12768;SDS011;6448;48.916;8.990;2023-12-04T00:34:30;9.85;;;9.05;;
12768;SDS011;6448;48.916;8.990;2023-12-04T00:35:30;10.07;;;9.27;;
12768;SDS011;6448;48.916;8.990;2023-12-04T00:36:32;10.30;;;9.40;;
12768;SDS011;6448;48.916;8.990;2023-12-04T00:37:33;9.88;;;9.07;;
12768;SDS011;6448;48.916;8.990;2023-12-04T00:38:38;9.93;;;9.13;;
12768;SDS011;6448;48.916;8.990;2023-12-04T00:39:39;10.40;;;9.50;;
12768;SDS011;6448;48.916;8.990;2023-12-04T00:40:40;9.95;;;9.15;;
12768;SDS011;6448;48.916;8.990;2023-12-04T00:41:41;9.88;;;9.07;;
12768;SDS011;6448;48.916;8.990;2023-12-04T00:42:43;9.95;;;9.15;;
12768;SDS011;6448;48.916;8.990;2023-12-04T00:43:44;9.70;;;8.90;;
12768;SDS011;6448;48.916;8.990;2023-12-04T00:44:46;9.75;;;8.95;;
12768;SDS011;6448;48.916;8.990;2023-12-04T00:45:48;10.18;;;9.35;;
12768;SDS011;6448;48.916;8.990;2023-12-04T00:46:49;10.25;;;9.35;;
12768;SDS011;6448;48.916;8.990;2023-12-04T00:47:50;9.55;;;8.75;;
12768;SDS011;6448;48.916;8.990;2023-12-04T00:48:51;9.90;;;9.10;;
12768;SDS011;6448;48.916;8.990;2023-12-04T00:49:53;9.95;;;9.15;;
12768;SDS011;6448;48.916;8.990;2023-12-04T00:50:54;10.35;;;9.45;;
12768;SDS011;6448;48.916;8.990;2023-12-04T00:51:56;9.95;;;9.10;;
12768;SDS011;6448;48.916;8.990;2023-12-04T00:52:56;9.90;;;9.07;;
12768;SDS011;6448;48.916;8.990;2023-12-04T00:53:58;10.23;;;9.40;;
12768;SDS011;6448;48.916;8.990;2023-12-04T00:54:59;9.50;;;8.70;;
12768;SDS011;6448;48.916;8.990;2023-12-04T00:56:00;9.70;;;8.90;;
12768;SDS011;6448;48.916;8.990;2023-12-04T00:57:01;10.02;;;9.20;;
12768;SDS011;6448;48.916;8.990;2023-12-04T00:58:03;9.63;;;8.82;;
12768;SDS011;6448;48.916;8.990;2023-12-04T00:59:04;9.35;;;8.60;;
12768;SDS011;6448;48.916;8.990;2023-12-04T01:00:07;9.63;;;8.82;;
12768;SDS011;6448;48.916;8.990;2023-12-04T01:01:10;10.02;;;9.13;;
12768;SDS011;6448;48.916;8.990;2023-12-04T01:02:11;9.27;;;8.47;;
12768;SDS011;6448;48.916;8.990;2023-12-04T01:03:12;9.38;;;8.57;;
12768;SDS011;6448;48.916;8.990;2023-12-04T01:04:14;10.20;;;9.30;;
12768;SDS011;6448;48.916;8.990;2023-12-04T01:05:15;9.38;;;8.57;;
12768;SDS011;6448;48.916;8.990;2023-12-04T01:06:20;9.57;;;8.77;;
12768;SDS011;6448;48.916;8.990;2023-12-04T01:07:22;9.85;;;9.00;;
12768;SDS011;6448;48.916;8.990;2023-12-04T01:08:23;10.00;;;9.20;;
12768;SDS011;6448;48.916;8.990;2023-12-04T01:09:25;10.20;;;9.30;;
12768;SDS011;6448;48.916;8.990;2023-12-04T01:10:26;9.85;;;9.05;;
12768;SDS011;6448;48.916;8.990;2023-12-04T01:11:27;9.50;;;8.70;;
12768;SDS011;6448;48.916;8.990;2023-12-04T01:12:28;9.30;;;8.50;;
12768;SDS011;6448;48.916;8.990;2023-12-04T01:13:29;9.10;;;8.40;;
12768;SDS011;6448;48.916;8.990;2023-12-04T01:14:31;9.88;;;9.07;;
12768;SDS011;6448;48.916;8.990;2023-12-04T01:15:32;9.23;;;8.52;;
12768;SDS011;6448;48.916;8.990;2023-12-04T01:16:36;9.35;;;8.57;;
12768;SDS011;6448;48.916;8.990;2023-12-04T01:17:36;9.50;;;8.70;;
12768;SDS011;6448;48.916;8.990;2023-12-04T01:18:38;9.30;;;8.60;;
12768;SDS011;6448;48.916;8.990;2023-12-04T01:19:39;9.45;;;8.65;;
12768;SDS011;6448;48.916;8.990;2023-12-04T01:20:40;9.60;;;8.80;;
12768;SDS011;6448;48.916;8.990;2023-12-04T01:21:42;9.05;;;8.27;;
12768;SDS011;6448;48.916;8.990;2023-12-04T01:22:43;9.25;;;8.45;;
12768;SDS011;6448;48.916;8.990;2023-12-04T01:23:44;8.98;;;8.25;;
12768;SDS011;6448;48.916;8.990;2023-12-04T01:24:45;8.93;;;8.23;;
12768;SDS011;6448;48.916;8.990;2023-12-04T01:25:47;9.00;;;8.25;;
12768;SDS011;6448;48.916;8.990;2023-12-04T01:26:48;8.70;;;8.00;;
12768;SDS011;6448;48.916;8.990;2023-12-04T01:27:49;8.40;;;7.70;;
12768;SDS011;6448;48.916;8.990;2023-12-04T01:28:50;8.80;;;8.10;;
12768;SDS011;6448;48.916;8.990;2023-12-04T01:29:52;8.60;;;7.90;;
12768;SDS011;6448;48.916;8.990;2023-12-04T01:30:53;8.40;;;7.70;;
12768;SDS011;6448;48.916;8.990;2023-12-04T01:31:56;9.07;;;8.38;;
12768;SDS011;6448;48.916;8.990;2023-12-04T01:32:57;8.82;;;8.02;;
12768;SDS011;6448;48.916;8.990;2023-12-04T01:33:58;8.60;;;7.90;;
12768;SDS011;6448;48.916;8.990;2023-12-04T01:34:59;8.40;;;7.70;;
12768;SDS011;6448;48.916;8.990;2023-12-04T01:36:01;7.80;;;6.25;;
12768;SDS011;6448;48.916;8.990;2023-12-04T01:37:02;5.75;;;4.30;;
12768;SDS011;6448;48.916;8.990;2023-12-04T01:38:04;4.18;;;3.22;;
12768;SDS011;6448;48.916;8.990;2023-12-04T01:39:05;4.05;;;2.90;;
12768;SDS011;6448;48.916;8.990;2023-12-04T01:40:07;3.97;;;3.00;;
12768;SDS011;6448;48.916;8.990;2023-12-04T01:41:09;6.65;;;3.40;;
12768;SDS011;6448;48.916;8.990;2023-12-04T01:42:10;3.38;;;2.10;;
12768;SDS011;6448;48.916;8.990;2023-12-04T01:43:11;3.00;;;2.27;;
12768;SDS011;6448;48.916;8.990;2023-12-04T01:44:12;3.85;;;3.00;;
12768;SDS011;6448;48.916;8.990;2023-12-04T01:45:14;4.82;;;3.20;;
12768;SDS011;6448;48.916;8.990;2023-12-04T01:46:15;5.00;;;3.60;;
12768;SDS011;6448;48.916;8.990;2023-12-04T01:47:19;4.90;;;3.75;;
12768;SDS011;6448;48.916;8.990;2023-12-04T01:48:21;6.07;;;4.05;;
12768;SDS011;6448;48.916;8.990;2023-12-04T01:49:23;5.07;;;3.88;;
12768;SDS011;6448;48.916;8.990;2023-12-04T01:50:25;5.63;;;4.22;;
12768;SDS011;6448;48.916;8.990;2023-12-04T01:51:26;5.05;;;4.00;;
12768;SDS011;6448;48.916;8.990;2023-12-04T01:52:28;4.88;;;3.72;;
12768;SDS011;6448;48.916;8.990;2023-12-04T01:53:29;5.40;;;4.47;;
12768;SDS011;6448;48.916;8.990;2023-12-04T01:54:32;6.13;;;4.97;;
12768;SDS011;6448;48.916;8.990;2023-12-04T01:55:33;6.00;;;4.73;;
12768;SDS011;6448;48.916;8.990;2023-12-04T01:56:36;6.18;;;5.10;;
12768;SDS011;6448;48.916;8.990;2023-12-04T01:57:37;6.37;;;5.27;;
12768;SDS011;6448;48.916;8.990;2023-12-04T01:58:39;7.45;;;5.75;;
12768;SDS011;6448;48.916;8.990;2023-12-04T01:59:40;7.22;;;5.50;;
12768;SDS011;6448;48.916;8.990;2023-12-04T02:00:41;7.38;;;5.63;;
12768;SDS011;6448;48.916;8.990;2023-12-04T02:01:42;6.70;;;5.55;;
12768;SDS011;6448;48.916;8.990;2023-12-04T02:02:45;6.85;;;5.68;;
12768;SDS011;6448;48.916;8.990;2023-12-04T02:03:46;7.70;;;6.07;;
12768;SDS011;6448;48.916;8.990;2023-12-04T02:04:48;7.18;;;6.05;;
12768;SDS011;6448;48.916;8.990;2023-12-04T02:05:49;8.48;;;6.38;;
12768;SDS011;6448;48.916;8.990;2023-12-04T02:06:53;7.72;;;6.68;;
12768;SDS011;6448;48.916;8.990;2023-12-04T02:07:54;7.57;;;6.18;;
12768;SDS011;6448;48.916;8.990;2023-12-04T02:08:56;6.72;;;5.85;;
12768;SDS011;6448;48.916;8.990;2023-12-04T02:09:57;7.32;;;6.47;;
12768;SDS011;6448;48.916;8.990;2023-12-04T02:10:59;7.13;;;6.43;;
12768;SDS011;6448;48.916;8.990;2023-12-04T02:12:00;8.52;;;6.60;;
12768;SDS011;6448;48.916;8.990;2023-12-04T02:13:02;7.17;;;6.00;;
12768;SDS011;6448;48.916;8.990;2023-12-04T02:14:03;7.32;;;6.20;;
12768;SDS011;6448;48.916;8.990;2023-12-04T02:15:05;7.65;;;6.70;;
12768;SDS011;6448;48.916;8.990;2023-12-04T02:16:08;7.88;;;6.75;;
12768;SDS011;6448;48.916;8.990;2023-12-04T02:17:11;7.43;;;6.60;;
12768;SDS011;6448;48.916;8.990;2023-12-04T02:18:14;7.15;;;6.30;;
12768;SDS011;6448;48.916;8.990;2023-12-04T02:19:16;6.47;;;5.13;;
12768;SDS011;6448;48.916;8.990;2023-12-04T02:20:17;8.38;;;5.60;;
12768;SDS011;6448;48.916;8.990;2023-12-04T02:21:19;7.55;;;5.88;;
12768;SDS011;6448;48.916;8.990;2023-12-04T02:22:20;8.05;;;6.22;;
12768;SDS011;6448;48.916;8.990;2023-12-04T02:23:20;6.97;;;5.63;;
12768;SDS011;6448;48.916;8.990;2023-12-04T02:24:23;7.38;;;6.07;;
12768;SDS011;6448;48.916;8.990;2023-12-04T02:25:24;7.65;;;5.93;;
12768;SDS011;6448;48.916;8.990;2023-12-04T02:26:27;6.88;;;6.10;;
12768;SDS011;6448;48.916;8.990;2023-12-04T02:27:36;7.72;;;6.65;;
12768;SDS011;6448;48.916;8.990;2023-12-04T02:28:40;7.53;;;6.22;;
12768;SDS011;6448;48.916;8.990;2023-12-04T02:29:52;7.97;;;6.37;;
12768;SDS011;6448;48.916;8.990;2023-12-04T02:30:56;7.05;;;6.07;;
12768;SDS011;6448;48.916;8.990;2023-12-04T02:32:00;7.47;;;6.68;;
12768;SDS011;6448;48.916;8.990;2023-12-04T02:33:04;8.40;;;6.80;;
12768;SDS011;6448;48.916;8.990;2023-12-04T02:34:08;7.35;;;6.35;;
12768;SDS011;6448;48.916;8.990;2023-12-04T02:35:11;7.45;;;6.65;;
12768;SDS011;6448;48.916;8.990;2023-12-04T02:36:15;7.18;;;6.30;;
12768;SDS011;6448;48.916;8.990;2023-12-04T02:37:16;8.02;;;6.35;;
12768;SDS011;6448;48.916;8.990;2023-12-04T02:38:18;8.38;;;6.85;;
12768;SDS011;6448;48.916;8.990;2023-12-04T02:39:19;7.05;;;6.05;;
12768;SDS011;6448;48.916;8.990;2023-12-04T02:40:23;7.75;;;5.80;;
12768;SDS011;6448;48.916;8.990;2023-12-04T02:41:25;7.47;;;6.30;;
12768;SDS011;6448;48.916;8.990;2023-12-04T02:42:27;7.38;;;6.50;;
12768;SDS011;6448;48.916;8.990;2023-12-04T02:43:28;7.18;;;6.38;;
12768;SDS011;6448;48.916;8.990;2023-12-04T02:44:30;7.05;;;6.03;;
12768;SDS011;6448;48.916;8.990;2023-12-04T02:45:31;7.25;;;6.47;;
12768;SDS011;6448;48.916;8.990;2023-12-04T02:46:32;7.15;;;6.45;;
12768;SDS011;6448;48.916;8.990;2023-12-04T02:47:34;6.80;;;5.97;;
12768;SDS011;6448;48.916;8.990;2023-12-04T02:48:36;6.65;;;5.75;;
12768;SDS011;6448;48.916;8.990;2023-12-04T02:49:37;6.97;;;5.65;;
12768;SDS011;6448;48.916;8.990;2023-12-04T02:50:38;7.38;;;5.68;;
12768;SDS011;6448;48.916;8.990;2023-12-04T02:51:40;7.45;;;5.50;;
12768;SDS011;6448;48.916;8.990;2023-12-04T02:52:42;6.57;;;5.40;;
12768;SDS011;6448;48.916;8.990;2023-12-04T02:53:42;6.45;;;5.43;;
12768;SDS011;6448;48.916;8.990;2023-12-04T02:54:44;6.93;;;5.55;;
12768;SDS011;6448;48.916;8.990;2023-12-04T02:55:46;7.43;;;5.93;;
12768;SDS011;6448;48.916;8.990;2023-12-04T02:56:47;6.60;;;5.80;;
12768;SDS011;6448;48.916;8.990;2023-12-04T02:57:49;7.63;;;6.20;;
12768;SDS011;6448;48.916;8.990;2023-12-04T02:58:49;7.57;;;6.28;;
12768;SDS011;6448;48.916;8.990;2023-12-04T02:59:51;6.32;;;5.65;;
12768;SDS011;6448;48.916;8.990;2023-12-04T03:00:53;7.30;;;6.13;;
12768;SDS011;6448;48.916;8.990;2023-12-04T03:01:54;7.85;;;6.28;;
12768;SDS011;6448;48.916;8.990;2023-12-04T03:02:55;7.03;;;5.80;;
12768;SDS011;6448;48.916;8.990;2023-12-04T03:03:57;7.40;;;5.70;;
12768;SDS011;6448;48.916;8.990;2023-12-04T03:04:57;7.63;;;6.00;;
12768;SDS011;6448;48.916;8.990;2023-12-04T03:05:59;6.95;;;5.65;;
12768;SDS011;6448;48.916;8.990;2023-12-04T03:07:00;7.00;;;5.60;;
12768;SDS011;6448;48.916;8.990;2023-12-04T03:08:02;7.35;;;6.22;;
12768;SDS011;6448;48.916;8.990;2023-12-04T03:09:03;6.80;;;5.80;;
12768;SDS011;6448;48.916;8.990;2023-12-04T03:10:05;7.00;;;5.82;;
12768;SDS011;6448;48.916;8.990;2023-12-04T03:11:08;6.65;;;5.70;;
12768;SDS011;6448;48.916;8.990;2023-12-04T03:12:10;7.43;;;6.00;;
12768;SDS011;6448;48.916;8.990;2023-12-04T03:13:11;6.78;;;5.75;;
12768;SDS011;6448;48.916;8.990;2023-12-04T03:14:12;6.93;;;5.60;;
12768;SDS011;6448;48.916;8.990;2023-12-04T03:15:14;7.45;;;5.75;;
12768;SDS011;6448;48.916;8.990;2023-12-04T03:16:15;6.93;;;5.70;;
12768;SDS011;6448;48.916;8.990;2023-12-04T03:17:16;7.82;;;5.25;;
12768;SDS011;6448;48.916;8.990;2023-12-04T03:18:18;7.78;;;5.88;;
12768;SDS011;6448;48.916;8.990;2023-12-04T03:19:18;7.22;;;5.55;;
12768;SDS011;6448;48.916;8.990;2023-12-04T03:20:20;7.32;;;5.70;;
12768;SDS011;6448;48.916;8.990;2023-12-04T03:21:21;6.97;;;6.20;;
12768;SDS011;6448;48.916;8.990;2023-12-04T03:22:23;8.90;;;8.20;;
12768;SDS011;6448;48.916;8.990;2023-12-04T03:23:24;8.80;;;8.10;;
12768;SDS011;6448;48.916;8.990;2023-12-04T03:24:25;8.75;;;8.05;;
12768;SDS011;6448;48.916;8.990;2023-12-04T03:25:26;8.50;;;7.80;;
12768;SDS011;6448;48.916;8.990;2023-12-04T03:26:28;8.80;;;8.10;;
12768;SDS011;6448;48.916;8.990;2023-12-04T03:27:30;8.70;;;8.00;;
12768;SDS011;6448;48.916;8.990;2023-12-04T03:28:31;9.32;;;8.52;;
12768;SDS011;6448;48.916;8.990;2023-12-04T03:29:31;9.13;;;8.38;;
12768;SDS011;6448;48.916;8.990;2023-12-04T03:30:33;8.90;;;8.20;;
12768;SDS011;6448;48.916;8.990;2023-12-04T03:31:34;8.90;;;8.15;;
12768;SDS011;6448;48.916;8.990;2023-12-04T03:32:36;9.23;;;8.43;;
12768;SDS011;6448;48.916;8.990;2023-12-04T03:33:37;8.90;;;8.20;;
12768;SDS011;6448;48.916;8.990;2023-12-04T03:34:39;8.95;;;8.25;;
12768;SDS011;6448;48.916;8.990;2023-12-04T03:35:40;8.85;;;8.15;;
12768;SDS011;6448;48.916;8.990;2023-12-04T03:36:42;8.63;;;7.93;;
12768;SDS011;6448;48.916;8.990;2023-12-04T03:37:43;8.80;;;8.10;;
12768;SDS011;6448;48.916;8.990;2023-12-04T03:38:45;8.68;;;7.97;;
12768;SDS011;6448;48.916;8.990;2023-12-04T03:39:45;8.50;;;7.80;;
12768;SDS011;6448;48.916;8.990;2023-12-04T03:40:47;8.52;;;7.82;;
12768;SDS011;6448;48.916;8.990;2023-12-04T03:41:49;9.57;;;8.77;;
12768;SDS011;6448;48.916;8.990;2023-12-04T03:42:51;8.68;;;7.97;;
12768;SDS011;6448;48.916;8.990;2023-12-04T03:43:52;9.05;;;8.25;;
12768;SDS011;6448;48.916;8.990;2023-12-04T03:44:53;8.73;;;8.02;;
12768;SDS011;6448;48.916;8.990;2023-12-04T03:45:54;8.63;;;7.93;;
12768;SDS011;6448;48.916;8.990;2023-12-04T03:46:56;9.02;;;8.32;;
12768;SDS011;6448;48.916;8.990;2023-12-04T03:47:57;8.75;;;8.05;;
12768;SDS011;6448;48.916;8.990;2023-12-04T03:48:58;8.65;;;7.95;;
12768;SDS011;6448;48.916;8.990;2023-12-04T03:49:59;8.70;;;8.00;;
12768;SDS011;6448;48.916;8.990;2023-12-04T03:51:00;8.37;;;7.73;;
12768;SDS011;6448;48.916;8.990;2023-12-04T03:52:02;8.63;;;7.93;;
12768;SDS011;6448;48.916;8.990;2023-12-04T03:53:03;8.77;;;8.07;;
12768;SDS011;6448;48.916;8.990;2023-12-04T03:54:04;8.70;;;8.00;;
12768;SDS011;6448;48.916;8.990;2023-12-04T03:55:05;8.60;;;7.90;;
12768;SDS011;6448;48.916;8.990;2023-12-04T03:56:07;8.38;;;7.68;;
12768;SDS011;6448;48.916;8.990;2023-12-04T03:57:12;8.18;;;7.47;;
12768;SDS011;6448;48.916;8.990;2023-12-04T03:58:13;8.40;;;7.70;;
12768;SDS011;6448;48.916;8.990;2023-12-04T03:59:15;8.00;;;7.40;;
12768;SDS011;6448;48.916;8.990;2023-12-04T04:00:16;8.80;;;8.00;;
12768;SDS011;6448;48.916;8.990;2023-12-04T04:01:18;8.15;;;7.47;;
12768;SDS011;6448;48.916;8.990;2023-12-04T04:02:18;8.90;;;8.17;;
12768;SDS011;6448;48.916;8.990;2023-12-04T04:03:20;7.80;;;7.20;;
12768;SDS011;6448;48.916;8.990;2023-12-04T04:04:21;8.17;;;7.50;;
12768;SDS011;6448;48.916;8.990;2023-12-04T04:05:23;8.70;;;8.00;;
12768;SDS011;6448;48.916;8.990;2023-12-04T04:06:23;8.10;;;7.40;;
12768;SDS011;6448;48.916;8.990;2023-12-04T04:07:25;7.82;;;7.20;;
12768;SDS011;6448;48.916;8.990;2023-12-04T04:08:26;7.85;;;7.25;;
12768;SDS011;6448;48.916;8.990;2023-12-04T04:09:28;7.93;;;7.22;;
12768;SDS011;6448;48.916;8.990;2023-12-04T04:10:29;5.53;;;4.22;;
12768;SDS011;6448;48.916;8.990;2023-12-04T04:11:31;6.32;;;4.90;;
12768;SDS011;6448;48.916;8.990;2023-12-04T04:12:33;6.78;;;5.40;;
12768;SDS011;6448;48.916;8.990;2023-12-04T04:13:35;7.28;;;5.60;;
12768;SDS011;6448;48.916;8.990;2023-12-04T04:14:36;7.45;;;5.60;;
12768;SDS011;6448;48.916;8.990;2023-12-04T04:15:38;7.22;;;5.43;;
12768;SDS011;6448;48.916;8.990;2023-12-04T04:16:39;6.80;;;5.40;;
12768;SDS011;6448;48.916;8.990;2023-12-04T04:17:41;7.30;;;5.20;;
12768;SDS011;6448;48.916;8.990;2023-12-04T04:18:42;6.47;;;5.10;;
12768;SDS011;6448;48.916;8.990;2023-12-04T04:19:43;6.15;;;4.88;;
12768;SDS011;6448;48.916;8.990;2023-12-04T04:20:44;5.15;;;4.40;;
12768;SDS011;6448;48.916;8.990;2023-12-04T04:21:45;5.28;;;4.43;;
12768;SDS011;6448;48.916;8.990;2023-12-04T04:22:47;6.00;;;4.93;;
12768;SDS011;6448;48.916;8.990;2023-12-04T04:23:48;5.15;;;4.00;;
12768;SDS011;6448;48.916;8.990;2023-12-04T04:24:50;5.10;;;4.13;;
12768;SDS011;6448;48.916;8.990;2023-12-04T04:25:50;4.63;;;3.90;;
12768;SDS011;6448;48.916;8.990;2023-12-04T04:26:52;4.90;;;3.72;;
12768;SDS011;6448;48.916;8.990;2023-12-04T04:27:54;5.47;;;4.40;;
12768;SDS011;6448;48.916;8.990;2023-12-04T04:28:56;5.85;;;4.30;;
12768;SDS011;6448;48.916;8.990;2023-12-04T04:29:56;6.10;;;4.53;;
12768;SDS011;6448;48.916;8.990;2023-12-04T04:30:58;5.40;;;4.28;;
12768;SDS011;6448;48.916;8.990;2023-12-04T04:31:59;6.67;;;4.70;;
12768;SDS011;6448;48.916;8.990;2023-12-04T04:33:01;5.95;;;4.65;;
12768;SDS011;6448;48.916;8.990;2023-12-04T04:34:02;5.20;;;4.38;;
12768;SDS011;6448;48.916;8.990;2023-12-04T04:35:04;5.60;;;4.38;;
12768;SDS011;6448;48.916;8.990;2023-12-04T04:36:05;5.20;;;4.10;;
12768;SDS011;6448;48.916;8.990;2023-12-04T04:37:09;5.47;;;4.40;;
12768;SDS011;6448;48.916;8.990;2023-12-04T04:38:11;5.75;;;4.43;;
12768;SDS011;6448;48.916;8.990;2023-12-04T04:39:12;5.33;;;4.27;;
12768;SDS011;6448;48.916;8.990;2023-12-04T04:40:15;6.03;;;4.40;;
12768;SDS011;6448;48.916;8.990;2023-12-04T04:41:16;5.55;;;4.43;;
12768;SDS011;6448;48.916;8.990;2023-12-04T04:42:18;5.00;;;4.05;;
12768;SDS011;6448;48.916;8.990;2023-12-04T04:43:20;5.67;;;4.57;;
12768;SDS011;6448;48.916;8.990;2023-12-04T04:44:22;6.07;;;4.30;;
12768;SDS011;6448;48.916;8.990;2023-12-04T04:45:23;5.43;;;4.20;;
12768;SDS011;6448;48.916;8.990;2023-12-04T04:46:24;6.53;;;4.78;;
12768;SDS011;6448;48.916;8.990;2023-12-04T04:47:26;5.93;;;4.57;;
12768;SDS011;6448;48.916;8.990;2023-12-04T04:48:27;5.22;;;4.40;;
12768;SDS011;6448;48.916;8.990;2023-12-04T04:49:29;5.50;;;4.63;;
12768;SDS011;6448;48.916;8.990;2023-12-04T04:50:30;6.23;;;4.87;;
12768;SDS011;6448;48.916;8.990;2023-12-04T04:51:31;6.13;;;4.45;;
12768;SDS011;6448;48.916;8.990;2023-12-04T04:52:32;5.72;;;4.78;;
12768;SDS011;6448;48.916;8.990;2023-12-04T04:53:33;6.43;;;4.93;;
12768;SDS011;6448;48.916;8.990;2023-12-04T04:54:35;4.80;;;4.22;;
12768;SDS011;6448;48.916;8.990;2023-12-04T04:55:35;5.38;;;4.28;;
12768;SDS011;6448;48.916;8.990;2023-12-04T04:56:36;5.85;;;4.57;;
12768;SDS011;6448;48.916;8.990;2023-12-04T04:57:38;6.50;;;4.70;;
12768;SDS011;6448;48.916;8.990;2023-12-04T04:58:40;6.28;;;4.75;;
12768;SDS011;6448;48.916;8.990;2023-12-04T04:59:42;5.97;;;4.45;;
12768;SDS011;6448;48.916;8.990;2023-12-04T05:00:42;6.32;;;4.82;;
12768;SDS011;6448;48.916;8.990;2023-12-04T05:01:44;6.22;;;4.60;;
12768;SDS011;6448;48.916;8.990;2023-12-04T05:02:45;6.43;;;4.70;;
12768;SDS011;6448;48.916;8.990;2023-12-04T05:03:47;6.20;;;4.40;;
12768;SDS011;6448;48.916;8.990;2023-12-04T05:04:48;6.43;;;4.90;;
12768;SDS011;6448;48.916;8.990;2023-12-04T05:05:49;5.22;;;4.60;;
12768;SDS011;6448;48.916;8.990;2023-12-04T05:06:50;5.73;;;4.57;;
12768;SDS011;6448;48.916;8.990;2023-12-04T05:07:52;5.90;;;4.97;;
12768;SDS011;6448;48.916;8.990;2023-12-04T05:08:53;6.57;;;5.00;;
12768;SDS011;6448;48.916;8.990;2023-12-04T05:09:54;6.28;;;4.65;;
12768;SDS011;6448;48.916;8.990;2023-12-04T05:10:55;5.97;;;5.00;;
12768;SDS011;6448;48.916;8.990;2023-12-04T05:11:57;5.50;;;4.60;;
12768;SDS011;6448;48.916;8.990;2023-12-04T05:12:57;6.80;;;5.10;;
12768;SDS011;6448;48.916;8.990;2023-12-04T05:14:00;6.93;;;4.97;;
12768;SDS011;6448;48.916;8.990;2023-12-04T05:15:01;6.75;;;5.20;;
12768;SDS011;6448;48.916;8.990;2023-12-04T05:16:04;5.75;;;4.90;;
12768;SDS011;6448;48.916;8.990;2023-12-04T05:17:05;5.65;;;4.63;;
12768;SDS011;6448;48.916;8.990;2023-12-04T05:18:07;6.05;;;5.03;;
12768;SDS011;6448;48.916;8.990;2023-12-04T05:19:08;5.87;;;4.77;;
12768;SDS011;6448;48.916;8.990;2023-12-04T05:20:08;6.63;;;5.27;;
12768;SDS011;6448;48.916;8.990;2023-12-04T05:21:10;6.20;;;5.30;;
12768;SDS011;6448;48.916;8.990;2023-12-04T05:22:12;6.15;;;4.93;;
12768;SDS011;6448;48.916;8.990;2023-12-04T05:23:13;7.15;;;5.60;;
12768;SDS011;6448;48.916;8.990;2023-12-04T05:24:14;5.82;;;4.78;;
12768;SDS011;6448;48.916;8.990;2023-12-04T05:25:16;6.35;;;5.10;;
12768;SDS011;6448;48.916;8.990;2023-12-04T05:26:16;7.00;;;5.33;;
12768;SDS011;6448;48.916;8.990;2023-12-04T05:27:17;6.50;;;5.13;;
12768;SDS011;6448;48.916;8.990;2023-12-04T05:28:19;6.47;;;5.40;;
12768;SDS011;6448;48.916;8.990;2023-12-04T05:29:21;6.10;;;5.23;;
12768;SDS011;6448;48.916;8.990;2023-12-04T05:30:23;6.60;;;4.95;;
12768;SDS011;6448;48.916;8.990;2023-12-04T05:31:23;6.80;;;5.15;;
12768;SDS011;6448;48.916;8.990;2023-12-04T05:32:25;6.70;;;5.30;;
12768;SDS011;6448;48.916;8.990;2023-12-04T05:33:26;6.65;;;5.03;;
12768;SDS011;6448;48.916;8.990;2023-12-04T05:34:28;6.38;;;5.40;;
12768;SDS011;6448;48.916;8.990;2023-12-04T05:35:28;6.85;;;5.30;;
12768;SDS011;6448;48.916;8.990;2023-12-04T05:36:33;6.47;;;5.30;;
12768;SDS011;6448;48.916;8.990;2023-12-04T05:37:34;6.75;;;5.47;;
12768;SDS011;6448;48.916;8.990;2023-12-04T05:38:36;6.10;;;5.22;;
12768;SDS011;6448;48.916;8.990;2023-12-04T05:39:36;7.55;;;5.50;;
12768;SDS011;6448;48.916;8.990;2023-12-04T05:40:38;7.10;;;5.40;;
12768;SDS011;6448;48.916;8.990;2023-12-04T05:41:39;6.90;;;5.50;;
12768;SDS011;6448;48.916;8.990;2023-12-04T05:42:41;7.15;;;5.38;;
12768;SDS011;6448;48.916;8.990;2023-12-04T05:43:41;5.90;;;4.93;;
12768;SDS011;6448;48.916;8.990;2023-12-04T05:44:44;6.15;;;5.20;;
12768;SDS011;6448;48.916;8.990;2023-12-04T05:45:45;6.85;;;5.32;;
12768;SDS011;6448;48.916;8.990;2023-12-04T05:46:47;7.20;;;5.65;;
12768;SDS011;6448;48.916;8.990;2023-12-04T05:47:48;7.07;;;5.23;;
12768;SDS011;6448;48.916;8.990;2023-12-04T05:48:49;7.18;;;5.45;;
12768;SDS011;6448;48.916;8.990;2023-12-04T05:49:50;6.57;;;5.60;;
12768;SDS011;6448;48.916;8.990;2023-12-04T05:50:52;6.90;;;5.60;;
12768;SDS011;6448;48.916;8.990;2023-12-04T05:51:52;6.60;;;5.13;;
12768;SDS011;6448;48.916;8.990;2023-12-04T05:52:54;6.07;;;4.93;;
12768;SDS011;6448;48.916;8.990;2023-12-04T05:53:55;6.00;;;4.97;;
12768;SDS011;6448;48.916;8.990;2023-12-04T05:54:57;5.72;;;5.10;;
12768;SDS011;6448;48.916;8.990;2023-12-04T05:55:58;6.30;;;5.18;;
12768;SDS011;6448;48.916;8.990;2023-12-04T05:57:00;6.22;;;5.10;;
12768;SDS011;6448;48.916;8.990;2023-12-04T05:58:01;6.25;;;5.10;;
12768;SDS011;6448;48.916;8.990;2023-12-04T05:59:02;6.93;;;5.20;;
12768;SDS011;6448;48.916;8.990;2023-12-04T06:00:06;5.80;;;4.93;;
12768;SDS011;6448;48.916;8.990;2023-12-04T06:01:12;6.07;;;4.80;;
12768;SDS011;6448;48.916;8.990;2023-12-04T06:02:15;6.40;;;4.78;;
12768;SDS011;6448;48.916;8.990;2023-12-04T06:03:16;6.03;;;4.70;;
12768;SDS011;6448;48.916;8.990;2023-12-04T06:04:17;4.90;;;4.38;;
12768;SDS011;6448;48.916;8.990;2023-12-04T06:05:19;6.55;;;4.78;;
12768;SDS011;6448;48.916;8.990;2023-12-04T06:06:20;5.72;;;4.80;;
12768;SDS011;6448;48.916;8.990;2023-12-04T06:07:21;6.32;;;4.80;;
12768;SDS011;6448;48.916;8.990;2023-12-04T06:08:22;5.85;;;4.70;;
12768;SDS011;6448;48.916;8.990;2023-12-04T06:09:24;5.57;;;4.38;;
12768;SDS011;6448;48.916;8.990;2023-12-04T06:10:25;5.70;;;4.70;;
12768;SDS011;6448;48.916;8.990;2023-12-04T06:11:27;5.13;;;4.32;;
12768;SDS011;6448;48.916;8.990;2023-12-04T06:12:27;5.32;;;4.00;;
12768;SDS011;6448;48.916;8.990;2023-12-04T06:13:28;5.20;;;4.05;;
12768;SDS011;6448;48.916;8.990;2023-12-04T06:14:30;5.72;;;4.53;;
12768;SDS011;6448;48.916;8.990;2023-12-04T06:15:32;5.30;;;4.30;;
12768;SDS011;6448;48.916;8.990;2023-12-04T06:16:33;4.80;;;3.92;;